createdAt,value
2023-01-31T00:01:37.345Z,5.22
2023-01-31T00:04:07.929Z,4.78
2023-01-31T00:06:43.760Z,4.45
2023-01-31T00:09:12.035Z,4.55
2023-01-31T00:11:39.370Z,4.22
2023-01-31T00:14:07.181Z,4.40
2023-01-31T00:16:35.067Z,4.55
2023-01-31T00:19:02.644Z,4.65
2023-01-31T00:21:31.173Z,4.30
2023-01-31T00:23:59.037Z,4.70
2023-01-31T00:26:31.928Z,4.80
2023-01-31T00:29:04.253Z,4.63
2023-01-31T00:31:32.794Z,4.63
2023-01-31T00:34:00.033Z,4.65
2023-01-31T00:36:34.982Z,4.95
2023-01-31T00:39:03.559Z,4.82
2023-01-31T00:41:31.524Z,4.85
2023-01-31T00:43:58.898Z,4.63
2023-01-31T00:46:26.025Z,5.10
2023-01-31T00:48:53.627Z,4.60
2023-01-31T00:51:20.879Z,4.60
2023-01-31T00:53:48.967Z,4.60
2023-01-31T00:56:19.203Z,4.57
2023-01-31T00:58:46.352Z,4.22
2023-01-31T01:01:16.190Z,4.80
2023-01-31T01:03:45.488Z,4.70
2023-01-31T01:06:13.748Z,5.03
2023-01-31T01:08:41.678Z,4.55
2023-01-31T01:11:23.790Z,4.90
2023-01-31T01:13:51.587Z,5.07
2023-01-31T01:16:22.186Z,5.20
2023-01-31T01:18:50.371Z,5.50
2023-01-31T01:21:23.295Z,5.70
2023-01-31T01:23:50.755Z,5.90
2023-01-31T01:26:20.768Z,5.18
2023-01-31T01:28:48.435Z,4.75
2023-01-31T01:31:16.823Z,5.20
2023-01-31T01:33:45.035Z,5.03
2023-01-31T01:36:13.790Z,5.10
2023-01-31T01:38:41.560Z,5.28
2023-01-31T01:41:10.593Z,5.28
2023-01-31T01:43:41.575Z,5.45
2023-01-31T01:46:10.314Z,5.47
2023-01-31T01:48:38.649Z,5.10
2023-01-31T01:51:07.662Z,5.47
2023-01-31T01:53:39.436Z,4.87
2023-01-31T01:56:14.154Z,5.45
2023-01-31T01:59:16.685Z,4.85
2023-01-31T02:01:45.021Z,5.38
2023-01-31T02:59:36.728Z,4.40
2023-01-31T03:02:04.773Z,4.47
2023-01-31T03:04:33.476Z,4.47
2023-01-31T03:07:08.429Z,4.22
2023-01-31T03:09:36.859Z,4.05
2023-01-31T03:12:25.433Z,4.80
2023-01-31T03:14:58.111Z,3.90
2023-01-31T03:17:53.812Z,4.47
2023-01-31T03:20:44.581Z,4.57
2023-01-31T03:23:19.554Z,4.75
2023-01-31T03:25:48.889Z,4.10
2023-01-31T03:28:21.122Z,4.32
2023-01-31T03:31:25.449Z,4.35
2023-01-31T03:33:56.103Z,4.68
2023-01-31T03:36:43.667Z,4.00
2023-01-31T03:39:24.570Z,4.60
2023-01-31T03:42:02.881Z,4.67
2023-01-31T03:44:45.617Z,4.45
2023-01-31T03:47:22.112Z,4.38
2023-01-31T03:49:52.002Z,4.53
2023-01-31T03:52:29.876Z,4.60
2023-01-31T03:55:05.965Z,4.60
2023-01-31T03:57:37.987Z,4.28
2023-01-31T04:00:09.400Z,4.00
2023-01-31T04:02:38.692Z,3.88
2023-01-31T04:05:10.418Z,3.63
2023-01-31T04:07:37.620Z,4.00
2023-01-31T04:10:17.989Z,3.65
2023-01-31T04:12:46.103Z,4.47
2023-01-31T04:15:13.645Z,4.43
2023-01-31T04:17:40.510Z,4.13
2023-01-31T04:20:08.373Z,4.07
2023-01-31T04:22:35.254Z,4.15
2023-01-31T04:25:04.353Z,4.03
2023-01-31T04:27:31.206Z,4.63
2023-01-31T04:29:58.108Z,4.25
2023-01-31T04:32:26.405Z,4.53
2023-01-31T04:34:53.559Z,4.03
2023-01-31T04:37:22.658Z,4.32
2023-01-31T04:39:50.187Z,4.05
2023-01-31T04:42:17.105Z,4.77
2023-01-31T04:44:44.155Z,4.45
2023-01-31T04:47:11.098Z,4.40
2023-01-31T04:49:37.995Z,4.32
2023-01-31T04:52:05.074Z,4.40
2023-01-31T04:54:32.223Z,4.47
2023-01-31T04:56:59.081Z,4.47
2023-01-31T04:59:25.959Z,4.15
2023-01-31T05:01:52.966Z,4.50
2023-01-31T05:04:22.120Z,4.32
2023-01-31T05:06:50.927Z,5.07
2023-01-31T05:09:18.139Z,5.07
2023-01-31T05:11:45.039Z,4.20
2023-01-31T05:14:13.767Z,4.97
2023-01-31T05:16:41.344Z,4.90
2023-01-31T05:19:08.302Z,4.93
2023-01-31T05:21:56.489Z,5.40
2023-01-31T05:24:23.490Z,5.90
2023-01-31T05:26:52.941Z,5.55
2023-01-31T05:29:21.426Z,5.15
2023-01-31T05:31:53.980Z,4.57
2023-01-31T05:34:21.330Z,4.38
2023-01-31T05:36:53.705Z,4.53
2023-01-31T05:39:21.974Z,4.00
2023-01-31T05:41:49.077Z,4.22
2023-01-31T05:44:19.112Z,4.10
2023-01-31T05:46:46.125Z,4.40
2023-01-31T05:49:13.376Z,4.10
2023-01-31T05:51:41.001Z,3.63
2023-01-31T05:54:08.413Z,3.60
2023-01-31T05:56:43.335Z,3.80
2023-01-31T05:59:10.360Z,3.55
2023-01-31T06:01:39.671Z,3.27
2023-01-31T06:04:06.562Z,3.70
2023-01-31T06:06:33.519Z,3.80
2023-01-31T06:09:00.462Z,3.40
2023-01-31T06:11:27.454Z,3.63
2023-01-31T06:13:58.487Z,3.30
2023-01-31T06:16:25.564Z,3.40
2023-01-31T06:18:52.548Z,3.10
2023-01-31T06:21:20.073Z,3.75
2023-01-31T06:23:47.994Z,3.70
2023-01-31T06:26:15.063Z,3.72
2023-01-31T06:28:42.076Z,3.30
2023-01-31T06:31:10.874Z,3.83
2023-01-31T06:33:46.789Z,3.57
2023-01-31T06:36:18.409Z,3.42
2023-01-31T06:38:49.789Z,3.53
2023-01-31T06:41:19.036Z,3.47
2023-01-31T06:43:46.091Z,3.45
2023-01-31T06:46:13.411Z,4.00
2023-01-31T06:48:40.451Z,3.70
2023-01-31T06:51:07.332Z,3.90
2023-01-31T06:53:34.199Z,3.73
2023-01-31T06:56:01.280Z,3.90
2023-01-31T06:58:28.412Z,3.55
2023-01-31T07:00:55.276Z,3.67
2023-01-31T07:03:22.196Z,3.45
2023-01-31T07:05:49.119Z,3.70
2023-01-31T07:08:16.120Z,3.83
2023-01-31T07:10:43.062Z,3.80
2023-01-31T07:13:09.923Z,3.90
2023-01-31T07:15:36.790Z,4.03
2023-01-31T07:18:03.808Z,4.60
2023-01-31T07:20:31.116Z,4.22
2023-01-31T07:22:58.986Z,4.35
2023-01-31T07:25:30.349Z,5.13
2023-01-31T07:27:57.237Z,7.03
2023-01-31T07:30:24.195Z,7.47
2023-01-31T07:32:51.340Z,6.97
2023-01-31T07:35:18.979Z,6.63
2023-01-31T07:37:46.190Z,5.72
2023-01-31T07:40:15.376Z,5.38
2023-01-31T07:42:42.466Z,5.20
2023-01-31T07:45:22.801Z,4.25
2023-01-31T07:47:50.296Z,4.57
2023-01-31T07:50:17.535Z,4.68
2023-01-31T07:52:44.480Z,5.10
2023-01-31T07:55:12.748Z,4.63
2023-01-31T07:57:39.563Z,6.35
2023-01-31T08:00:27.268Z,6.75
2023-01-31T08:03:12.611Z,5.80
2023-01-31T08:05:39.524Z,5.50
2023-01-31T08:08:13.026Z,5.78
2023-01-31T08:10:41.219Z,5.70
2023-01-31T08:13:08.311Z,5.23
2023-01-31T08:15:35.396Z,4.88
2023-01-31T08:18:06.137Z,5.20
2023-01-31T08:20:33.746Z,5.38
2023-01-31T08:23:00.644Z,4.95
2023-01-31T08:25:31.939Z,5.10
2023-01-31T08:28:00.220Z,4.10
2023-01-31T08:30:27.985Z,3.97
2023-01-31T08:32:55.573Z,4.70
2023-01-31T08:35:25.490Z,4.85
2023-01-31T08:37:55.325Z,4.45
2023-01-31T08:40:25.789Z,4.80
2023-01-31T08:43:00.638Z,4.97
2023-01-31T08:45:31.475Z,5.32
2023-01-31T08:48:09.189Z,4.50
2023-01-31T08:50:40.505Z,4.28
2023-01-31T08:53:08.211Z,4.80
2023-01-31T08:55:36.279Z,4.90
2023-01-31T08:58:04.771Z,4.35
2023-01-31T09:00:34.170Z,4.72
2023-01-31T09:03:03.897Z,4.20
2023-01-31T09:05:32.481Z,4.45
2023-01-31T09:08:00.666Z,4.13
2023-01-31T09:10:27.613Z,4.53
2023-01-31T09:12:55.439Z,4.30
2023-01-31T09:15:24.586Z,4.00
2023-01-31T09:17:53.804Z,4.07
2023-01-31T09:20:21.423Z,4.40
2023-01-31T09:22:50.863Z,4.10
2023-01-31T09:25:18.465Z,4.00
2023-01-31T09:27:45.688Z,4.10
2023-01-31T09:30:13.158Z,3.80
2023-01-31T09:32:41.439Z,3.35
2023-01-31T09:35:08.789Z,3.67
2023-01-31T09:37:35.786Z,4.07
2023-01-31T09:40:02.617Z,3.95
2023-01-31T09:42:42.609Z,3.80
2023-01-31T09:45:15.117Z,3.67
2023-01-31T09:47:50.505Z,4.15
2023-01-31T09:50:49.754Z,4.13
2023-01-31T09:53:23.005Z,3.92
2023-01-31T09:56:23.165Z,4.07
2023-01-31T09:59:28.124Z,4.20
2023-01-31T10:02:01.277Z,4.40
2023-01-31T10:05:05.581Z,3.90
2023-01-31T10:08:06.606Z,4.10
2023-01-31T10:10:56.581Z,4.03
2023-01-31T10:13:39.308Z,4.00
2023-01-31T10:16:34.717Z,4.13
2023-01-31T10:19:20.648Z,4.22
2023-01-31T10:22:00.867Z,3.75
2023-01-31T10:24:41.383Z,4.20
2023-01-31T10:27:44.683Z,4.10
2023-01-31T10:30:30.346Z,4.03
2023-01-31T10:33:10.141Z,4.10
2023-01-31T10:35:42.828Z,3.95
2023-01-31T10:38:47.499Z,4.30
2023-01-31T10:41:22.924Z,4.07
2023-01-31T10:44:16.497Z,4.00
2023-01-31T10:46:45.563Z,3.90
2023-01-31T10:49:12.894Z,3.60
2023-01-31T10:52:07.643Z,3.70
2023-01-31T10:54:56.943Z,3.33
2023-01-31T10:57:24.554Z,3.50
2023-01-31T11:00:00.821Z,3.40
2023-01-31T11:02:38.739Z,3.40
2023-01-31T11:05:24.016Z,2.47
2023-01-31T11:07:51.376Z,2.38
2023-01-31T11:10:29.728Z,2.20
2023-01-31T11:13:11.037Z,1.90
2023-01-31T11:15:43.463Z,2.00
2023-01-31T11:18:48.844Z,2.10
2023-01-31T11:21:30.499Z,1.90
2023-01-31T11:24:17.481Z,1.97
2023-01-31T11:27:01.675Z,1.83
2023-01-31T11:29:36.027Z,2.00
2023-01-31T11:32:14.246Z,2.15
2023-01-31T11:35:07.919Z,2.00
2023-01-31T11:37:37.898Z,1.42
2023-01-31T11:40:34.336Z,1.88
2023-01-31T11:43:19.597Z,1.60
2023-01-31T11:45:59.560Z,1.20
2023-01-31T11:48:50.355Z,1.30
2023-01-31T11:51:32.213Z,1.17
2023-01-31T11:54:00.629Z,1.02
2023-01-31T11:56:36.730Z,1.40
2023-01-31T11:59:07.835Z,1.50
2023-01-31T12:01:44.209Z,1.70
2023-01-31T12:04:31.637Z,1.52
2023-01-31T12:07:00.548Z,1.40
2023-01-31T12:09:36.097Z,1.60
2023-01-31T12:12:06.468Z,1.52
2023-01-31T12:14:42.176Z,0.90
2023-01-31T12:17:15.482Z,1.17
2023-01-31T12:20:27.959Z,1.52
2023-01-31T12:23:19.103Z,1.88
2023-01-31T12:26:30.769Z,2.17
2023-01-31T12:29:20.659Z,2.20
2023-01-31T12:32:32.009Z,2.40
2023-01-31T12:35:34.214Z,2.37
2023-01-31T12:38:32.986Z,2.40
2023-01-31T12:41:26.886Z,2.72
2023-01-31T12:44:25.789Z,2.60
2023-01-31T12:47:15.216Z,2.60
2023-01-31T12:49:51.008Z,2.30
2023-01-31T12:52:49.066Z,2.33
2023-01-31T12:55:46.977Z,1.92
2023-01-31T12:58:45.030Z,1.90
2023-01-31T13:01:38.056Z,1.90
2023-01-31T13:04:31.100Z,1.70
2023-01-31T13:07:05.439Z,1.80
2023-01-31T13:09:37.124Z,2.07
2023-01-31T13:12:08.028Z,2.15
2023-01-31T13:14:49.522Z,1.87
2023-01-31T13:17:23.164Z,2.30
2023-01-31T13:20:01.885Z,1.77
2023-01-31T13:22:46.735Z,1.45
2023-01-31T13:25:40.829Z,1.57
2023-01-31T13:28:21.546Z,1.50
2023-01-31T13:31:15.083Z,1.90
2023-01-31T13:33:55.855Z,1.70
2023-01-31T13:37:12.219Z,1.77
2023-01-31T13:39:57.480Z,1.70
2023-01-31T13:42:29.373Z,1.70
2023-01-31T13:45:04.876Z,1.70
2023-01-31T13:47:48.291Z,1.33
2023-01-31T13:50:43.547Z,1.48
2023-01-31T13:53:25.414Z,1.60
2023-01-31T13:55:54.333Z,1.58
2023-01-31T13:58:34.340Z,1.50
2023-01-31T14:01:23.540Z,1.10
2023-01-31T14:04:12.425Z,1.40
2023-01-31T14:07:18.502Z,1.40
2023-01-31T14:09:49.552Z,1.17
2023-01-31T14:12:30.749Z,1.13
2023-01-31T14:15:07.371Z,1.10
2023-01-31T14:17:37.572Z,1.40
2023-01-31T14:20:08.611Z,1.45
2023-01-31T14:22:39.701Z,2.80
2023-01-31T14:25:36.888Z,1.40
2023-01-31T14:28:04.998Z,1.58
2023-01-31T14:30:43.809Z,1.23
2023-01-31T14:33:20.986Z,1.40
2023-01-31T14:36:26.335Z,1.50
2023-01-31T14:39:21.870Z,1.98
2023-01-31T14:42:12.928Z,1.75
2023-01-31T14:45:16.932Z,2.28
2023-01-31T14:48:23.736Z,2.20
2023-01-31T14:51:17.714Z,2.35
2023-01-31T14:54:07.203Z,2.42
2023-01-31T14:57:11.413Z,2.92
2023-01-31T14:59:55.371Z,2.30
2023-01-31T15:02:40.715Z,2.00
2023-01-31T15:05:39.909Z,2.60
2023-01-31T15:08:09.563Z,2.42
2023-01-31T15:11:18.330Z,1.98
2023-01-31T15:14:01.897Z,2.30
2023-01-31T15:16:35.130Z,2.30
2023-01-31T15:19:21.780Z,2.30
2023-01-31T15:22:03.976Z,2.47
2023-01-31T15:24:39.564Z,2.22
2023-01-31T15:27:32.847Z,2.40
2023-01-31T15:30:05.285Z,2.42
2023-01-31T15:33:13.621Z,2.33
2023-01-31T15:36:01.609Z,2.25
2023-01-31T15:38:40.411Z,2.30
2023-01-31T15:41:21.594Z,2.10
2023-01-31T15:43:51.910Z,2.35
2023-01-31T15:46:31.515Z,2.60
2023-01-31T15:49:00.645Z,2.78
2023-01-31T15:51:29.726Z,2.83
2023-01-31T15:54:09.229Z,2.65
2023-01-31T15:56:42.501Z,2.63
2023-01-31T15:59:15.240Z,2.85
2023-01-31T16:01:56.400Z,2.47
2023-01-31T16:04:23.582Z,2.53
2023-01-31T16:06:53.436Z,2.47
2023-01-31T16:09:33.179Z,2.95
2023-01-31T16:12:02.035Z,2.67
2023-01-31T16:14:31.400Z,2.55
2023-01-31T16:17:01.684Z,4.35
2023-01-31T16:19:36.692Z,2.55
2023-01-31T16:22:32.196Z,2.45
2023-01-31T16:25:12.014Z,2.40
2023-01-31T16:27:42.849Z,2.70
2023-01-31T16:30:17.011Z,2.42
2023-01-31T16:32:44.902Z,2.53
2023-01-31T16:35:31.669Z,2.75
2023-01-31T16:38:31.719Z,2.85
2023-01-31T16:41:02.289Z,2.78
2023-01-31T16:43:36.669Z,3.10
2023-01-31T16:46:22.715Z,3.00
2023-01-31T16:49:21.648Z,3.00
2023-01-31T16:51:50.274Z,3.05
2023-01-31T16:54:23.427Z,2.97
2023-01-31T16:57:07.835Z,3.20
2023-01-31T16:59:45.416Z,3.67
2023-01-31T17:02:21.592Z,2.70
2023-01-31T17:04:51.777Z,3.08
2023-01-31T17:07:23.816Z,2.47
2023-01-31T17:09:55.975Z,2.78
2023-01-31T17:12:28.049Z,3.08
2023-01-31T17:15:03.782Z,2.85
2023-01-31T17:17:35.071Z,2.53
2023-01-31T17:20:02.213Z,1.83
2023-01-31T17:22:29.329Z,2.40
2023-01-31T17:24:56.532Z,2.60
2023-01-31T17:27:24.002Z,3.05
2023-01-31T17:29:53.721Z,2.20
2023-01-31T17:32:23.743Z,2.28
2023-01-31T17:34:54.129Z,2.63
2023-01-31T17:37:31.203Z,2.30
2023-01-31T17:40:06.912Z,2.38
2023-01-31T17:42:33.911Z,2.47
2023-01-31T17:45:00.932Z,2.72
2023-01-31T17:47:30.278Z,2.88
2023-01-31T17:49:57.459Z,2.60
2023-01-31T17:52:25.202Z,3.05
2023-01-31T17:54:52.226Z,2.58
2023-01-31T17:57:19.109Z,3.00
2023-01-31T17:59:46.491Z,2.80
2023-01-31T18:02:13.529Z,2.80
2023-01-31T18:04:40.415Z,2.92
2023-01-31T18:07:11.759Z,2.65
2023-01-31T18:09:41.981Z,2.95
2023-01-31T18:12:11.942Z,3.23
2023-01-31T18:14:41.913Z,3.00
2023-01-31T18:17:08.926Z,2.60
2023-01-31T18:19:35.918Z,2.90
2023-01-31T18:22:02.780Z,2.40
2023-01-31T18:24:33.193Z,2.30
2023-01-31T18:27:00.234Z,2.33
2023-01-31T18:29:27.388Z,2.20
2023-01-31T18:31:56.495Z,2.90
2023-01-31T18:34:27.800Z,2.27
2023-01-31T18:36:54.813Z,1.80
2023-01-31T18:39:25.136Z,2.30
2023-01-31T18:41:53.405Z,2.17
2023-01-31T18:44:20.279Z,2.28
2023-01-31T18:46:48.549Z,1.88
2023-01-31T18:49:20.228Z,2.00
2023-01-31T18:51:50.882Z,1.92
2023-01-31T18:54:18.551Z,1.90
2023-01-31T18:56:48.319Z,1.70
2023-01-31T18:59:15.160Z,1.38
2023-01-31T19:01:43.556Z,2.13
2023-01-31T19:04:11.768Z,1.88
2023-01-31T19:06:41.103Z,2.15
2023-01-31T19:09:12.083Z,2.03
2023-01-31T19:11:43.447Z,2.42
2023-01-31T19:14:14.293Z,2.00
2023-01-31T19:16:44.936Z,2.20
2023-01-31T19:19:14.558Z,2.08
2023-01-31T19:21:42.069Z,2.05
2023-01-31T19:24:14.158Z,2.20
2023-01-31T19:26:42.268Z,2.90
2023-01-31T19:29:13.586Z,4.05
2023-01-31T19:31:40.897Z,3.67
2023-01-31T19:34:13.203Z,8.45
2023-01-31T19:36:41.790Z,4.40
2023-01-31T19:39:11.693Z,3.97
2023-01-31T19:41:38.611Z,3.60
2023-01-31T19:44:05.754Z,2.83
2023-01-31T19:46:34.760Z,2.83
2023-01-31T19:49:01.998Z,3.42
2023-01-31T19:51:30.034Z,2.88
2023-01-31T19:54:02.540Z,3.08
2023-01-31T19:56:30.539Z,2.67
2023-01-31T19:58:57.584Z,2.60
2023-01-31T20:01:24.972Z,2.97
2023-01-31T20:03:53.747Z,2.60
2023-01-31T20:06:25.202Z,2.80
2023-01-31T20:08:59.037Z,2.53
2023-01-31T20:11:28.233Z,2.70
2023-01-31T20:13:57.343Z,2.40
2023-01-31T20:16:24.702Z,2.35
2023-01-31T20:18:54.820Z,2.70
2023-01-31T20:21:22.447Z,2.75
2023-01-31T20:23:52.058Z,2.65
2023-01-31T20:26:24.251Z,3.13
2023-01-31T20:28:52.002Z,3.00
2023-01-31T20:31:19.342Z,2.70
2023-01-31T20:33:46.357Z,2.65
2023-01-31T20:36:13.747Z,2.85
2023-01-31T20:38:41.943Z,2.50
2023-01-31T20:41:11.437Z,2.63
2023-01-31T20:43:38.627Z,2.90
2023-01-31T20:46:09.158Z,2.55
2023-01-31T20:48:36.393Z,2.58
2023-01-31T20:51:03.492Z,2.60
2023-01-31T20:53:32.168Z,2.40
2023-01-31T20:56:05.153Z,2.40
2023-01-31T20:58:34.825Z,2.63
2023-01-31T21:01:05.358Z,3.35
2023-01-31T21:03:33.358Z,2.70
2023-01-31T21:06:01.601Z,3.70
2023-01-31T21:08:29.383Z,4.80
2023-01-31T21:10:58.059Z,5.50
2023-01-31T21:13:28.050Z,6.50
2023-01-31T21:16:01.777Z,6.25
2023-01-31T21:18:31.653Z,4.43
2023-01-31T21:21:06.913Z,4.50
2023-01-31T21:23:35.378Z,4.55
2023-01-31T21:26:04.176Z,5.55
2023-01-31T21:28:31.120Z,5.20
2023-01-31T21:31:04.100Z,5.93
2023-01-31T21:33:31.480Z,4.70
2023-01-31T21:36:00.573Z,3.15
2023-01-31T21:38:28.167Z,2.70
2023-01-31T21:41:14.446Z,2.97
2023-01-31T21:43:45.199Z,2.53
2023-01-31T21:46:15.163Z,3.47
2023-01-31T21:48:42.553Z,3.40
2023-01-31T21:51:13.462Z,3.30
2023-01-31T21:53:43.178Z,3.10
2023-01-31T21:56:15.790Z,3.00
2023-01-31T21:58:43.638Z,3.88
2023-01-31T22:01:31.565Z,4.30
2023-01-31T22:04:00.738Z,4.63
2023-01-31T22:06:42.308Z,4.53
2023-01-31T22:09:15.725Z,4.85
2023-01-31T22:11:43.478Z,3.40
2023-01-31T22:14:13.583Z,3.25
2023-01-31T22:16:41.275Z,3.25
2023-01-31T22:19:09.744Z,3.63
2023-01-31T22:21:37.612Z,4.25
2023-01-31T22:24:06.807Z,4.32
2023-01-31T22:26:36.578Z,4.30
2023-01-31T22:29:05.844Z,4.38
2023-01-31T22:31:34.541Z,4.55
2023-01-31T22:34:06.595Z,4.07
2023-01-31T22:36:34.557Z,4.03
2023-01-31T22:39:02.156Z,3.72
2023-01-31T22:41:29.397Z,3.40
2023-01-31T22:43:56.670Z,3.47
2023-01-31T22:46:28.677Z,3.63
2023-01-31T22:48:56.465Z,3.00
2023-01-31T22:51:26.251Z,3.00
2023-01-31T22:53:57.148Z,3.27
2023-01-31T22:56:27.419Z,3.95
2023-01-31T22:59:03.617Z,3.03
2023-01-31T23:01:35.432Z,3.63
2023-01-31T23:04:05.192Z,3.80
2023-01-31T23:06:33.284Z,3.60
2023-01-31T23:09:00.471Z,3.77
2023-01-31T23:11:27.469Z,3.50
2023-01-31T23:13:54.456Z,3.75
2023-01-31T23:16:42.502Z,3.70
2023-01-31T23:19:10.005Z,3.92
2023-01-31T23:21:42.903Z,4.03
2023-01-31T23:24:11.373Z,3.83
2023-01-31T23:26:38.562Z,3.80
2023-01-31T23:29:05.506Z,3.90
2023-01-31T23:31:32.714Z,3.60
2023-01-31T23:34:03.234Z,3.83
2023-01-31T23:36:30.119Z,4.32
2023-01-31T23:38:57.029Z,4.40
2023-01-31T23:41:27.166Z,4.63
2023-01-31T23:43:54.207Z,3.80
2023-01-31T23:46:23.198Z,3.88
2023-01-31T23:48:50.095Z,4.00
2023-01-31T23:51:19.989Z,4.10
2023-01-31T23:53:46.891Z,4.22
2023-01-31T23:56:13.712Z,4.22
2023-01-31T23:58:40.751Z,4.33
